Time;durP1;ratioP1;P1;durP2;ratioP2;P2;SDS_P1;SDS_P2;PMS_P1;PMS_P2;Temp;Humidity;BMP_temperature;BMP_pressure;BME280_temperature;BME280_humidity;BME280_pressure;Samples;Min_cycle;Max_cycle;Signal;HPM_P1;HPM_P2
2023/12/13 00:02:22;;;;;;;54.50;18.20;;;3.30;99.90;;;;;;5038063;28;20029;-59
2023/12/13 00:04:47;;;;;;;26.95;13.60;;;3.40;99.90;;;;;;5035911;28;20677;-59
2023/12/13 00:07:13;;;;;;;39.67;16.30;;;3.40;99.90;;;;;;5037052;28;20060;-60
2023/12/13 00:09:38;;;;;;;30.38;14.30;;;3.40;99.90;;;;;;5033302;28;20029;-60
2023/12/13 00:12:04;;;;;;;36.03;14.63;;;3.40;99.90;;;;;;5039067;28;20029;-60
2023/12/13 00:14:30;;;;;;;40.88;17.45;;;3.40;99.90;;;;;;5037151;28;20111;-60
2023/12/13 00:16:55;;;;;;;37.00;15.75;;;3.40;99.90;;;;;;5036487;28;20124;-60
2023/12/13 00:19:21;;;;;;;31.98;13.90;;;3.40;99.90;;;;;;5026894;28;20025;-60
2023/12/13 00:21:47;;;;;;;32.72;14.63;;;3.40;99.90;;;;;;5032044;28;20039;-60
2023/12/13 00:24:13;;;;;;;50.90;19.08;;;3.40;99.90;;;;;;5037299;28;20554;-60
2023/12/13 00:26:38;;;;;;;38.38;16.65;;;3.40;99.90;;;;;;5036748;28;20044;-60
2023/12/13 00:29:04;;;;;;;35.33;14.13;;;3.40;99.90;;;;;;5035963;28;20025;-60
2023/12/13 00:31:30;;;;;;;41.83;15.50;;;3.50;99.90;;;;;;5037429;28;20779;-60
2023/12/13 00:33:55;;;;;;;38.47;15.55;;;3.40;99.90;;;;;;5032459;28;20036;-60
2023/12/13 00:36:21;;;;;;;40.90;14.45;;;3.40;99.90;;;;;;5031676;28;20065;-60
2023/12/13 00:38:46;;;;;;;33.33;13.77;;;3.50;99.90;;;;;;5036948;28;20021;-60
2023/12/13 00:41:12;;;;;;;24.75;12.73;;;3.50;99.90;;;;;;5032487;28;20123;-60
2023/12/13 00:43:38;;;;;;;39.13;15.85;;;3.40;99.90;;;;;;5031932;28;20047;-61
2023/12/13 00:46:05;;;;;;;37.22;15.68;;;3.50;99.90;;;;;;5035858;28;20029;-60
2023/12/13 00:48:32;;;;;;;30.23;15.00;;;3.50;99.90;;;;;;5036806;28;20029;-60
2023/12/13 00:50:57;;;;;;;33.42;14.38;;;3.50;99.90;;;;;;5033368;28;20075;-60
2023/12/13 00:53:23;;;;;;;31.00;14.60;;;3.50;99.90;;;;;;5032309;28;20946;-60
2023/12/13 00:55:51;;;;;;;31.58;14.90;;;3.60;99.90;;;;;;5036041;28;20029;-59
2023/12/13 00:58:17;;;;;;;30.38;13.45;;;3.60;99.90;;;;;;5033033;28;20550;-60
2023/12/13 01:00:42;;;;;;;26.55;12.57;;;3.60;99.90;;;;;;5033423;28;20039;-60
2023/12/13 01:03:08;;;;;;;32.30;15.20;;;3.60;99.90;;;;;;5034266;28;20550;-60
2023/12/13 01:05:33;;;;;;;24.67;13.50;;;3.60;99.90;;;;;;5031344;28;20029;-60
2023/12/13 01:07:59;;;;;;;29.85;14.02;;;3.70;99.90;;;;;;5036130;28;20052;-61
2023/12/13 01:10:24;;;;;;;23.70;13.15;;;3.70;99.90;;;;;;5034252;28;20490;-60
2023/12/13 01:12:49;;;;;;;31.15;16.00;;;3.70;99.90;;;;;;5031258;28;20127;-61
2023/12/13 01:15:15;;;;;;;37.42;15.90;;;3.70;99.90;;;;;;5037737;28;20033;-60
2023/12/13 01:17:40;;;;;;;28.10;15.55;;;3.80;99.90;;;;;;5037129;28;20021;-60
2023/12/13 01:20:09;;;;;;;25.42;13.75;;;3.80;99.90;;;;;;5038756;28;20025;-61
2023/12/13 01:22:35;;;;;;;35.65;16.38;;;3.80;99.90;;;;;;5035188;28;20452;-61
2023/12/13 01:25:00;;;;;;;35.28;14.43;;;3.80;99.90;;;;;;5039638;28;20029;-61
2023/12/13 01:27:26;;;;;;;31.23;15.30;;;3.80;99.90;;;;;;5039696;28;20021;-61
2023/12/13 01:29:51;;;;;;;29.58;14.52;;;3.80;99.90;;;;;;5039856;28;20045;-60
2023/12/13 01:32:17;;;;;;;29.88;15.38;;;3.80;99.90;;;;;;5038194;28;20025;-60
2023/12/13 01:34:42;;;;;;;31.40;15.40;;;3.90;99.90;;;;;;5039694;28;20110;-61
2023/12/13 01:37:08;;;;;;;29.02;15.05;;;3.90;99.90;;;;;;5038327;28;20198;-60
2023/12/13 01:39:33;;;;;;;30.73;15.40;;;3.90;99.90;;;;;;5039657;28;20166;-60
2023/12/13 01:41:59;;;;;;;35.35;16.52;;;3.90;99.90;;;;;;5039525;28;20036;-60
2023/12/13 01:44:24;;;;;;;26.33;13.52;;;3.90;99.90;;;;;;5039638;28;20035;-60
2023/12/13 01:46:50;;;;;;;39.40;18.83;;;3.90;99.90;;;;;;5039505;28;20367;-72
2023/12/13 01:49:16;;;;;;;33.25;17.75;;;4.00;99.90;;;;;;5039728;28;20049;-71
2023/12/13 01:51:43;;;;;;;38.38;17.77;;;4.00;99.90;;;;;;5041695;28;20049;-71
2023/12/13 01:54:12;;;;;;;37.75;19.25;;;4.00;99.90;;;;;;5039424;28;20029;-72
2023/12/13 01:56:40;;;;;;;30.67;16.67;;;4.00;99.90;;;;;;5039270;28;20104;-72
2023/12/13 01:59:06;;;;;;;35.55;17.42;;;4.10;99.90;;;;;;5039673;28;20025;-72
2023/12/13 02:01:32;;;;;;;35.90;16.58;;;4.10;99.90;;;;;;5039535;28;20032;-72
2023/12/13 02:03:57;;;;;;;38.30;18.77;;;4.10;99.90;;;;;;5039472;28;20035;-71
2023/12/13 02:06:23;;;;;;;44.97;20.85;;;4.10;99.90;;;;;;5039452;28;20032;-71
2023/12/13 02:08:48;;;;;;;34.17;17.98;;;4.10;99.90;;;;;;5041270;28;20029;-72
2023/12/13 02:11:14;;;;;;;39.80;18.95;;;4.20;99.90;;;;;;5039506;28;20033;-72
2023/12/13 02:13:39;;;;;;;31.60;16.92;;;4.20;99.90;;;;;;5039355;28;20048;-72
2023/12/13 02:16:05;;;;;;;43.90;20.63;;;4.20;99.90;;;;;;5039278;28;20044;-72
2023/12/13 02:18:31;;;;;;;40.78;20.52;;;4.20;99.90;;;;;;5035380;28;20434;-73
2023/12/13 02:20:57;;;;;;;36.10;18.08;;;4.30;99.90;;;;;;5039373;28;20025;-71
2023/12/13 02:23:22;;;;;;;30.27;15.57;;;4.30;99.90;;;;;;5039437;28;20436;-72
2023/12/13 02:25:59;;;;;;;33.17;15.90;;;4.30;99.90;;;;;;5041104;28;20479;-72
2023/12/13 02:28:26;;;;;;;30.75;16.83;;;4.30;99.90;;;;;;5036574;28;20509;-71
2023/12/13 02:30:56;;;;;;;33.17;18.08;;;4.30;99.90;;;;;;5041174;28;20409;-71
2023/12/13 02:33:24;;;;;;;36.42;18.05;;;4.40;99.90;;;;;;5037542;28;20107;-72
2023/12/13 02:35:50;;;;;;;39.92;16.45;;;4.40;99.90;;;;;;5036760;28;20116;-71
2023/12/13 02:38:16;;;;;;;33.42;17.83;;;4.40;99.90;;;;;;5033292;28;20033;-73
2023/12/13 02:40:42;;;;;;;34.53;19.73;;;4.40;99.90;;;;;;5043185;28;20102;-72
2023/12/13 02:43:07;;;;;;;37.72;19.60;;;4.40;99.90;;;;;;5042614;28;20024;-72
2023/12/13 02:45:33;;;;;;;34.08;17.13;;;4.40;99.90;;;;;;5042680;28;20044;-72
2023/12/13 02:47:59;;;;;;;34.67;19.27;;;4.40;99.90;;;;;;5044246;28;20108;-72
2023/12/13 02:50:25;;;;;;;38.28;19.05;;;4.40;99.90;;;;;;5040831;28;20032;-72
2023/12/13 02:52:51;;;;;;;36.15;18.73;;;4.40;99.90;;;;;;5042662;28;20397;-72
2023/12/13 02:55:16;;;;;;;33.92;19.77;;;4.40;99.90;;;;;;5042244;28;20053;-72
2023/12/13 02:57:42;;;;;;;39.42;19.17;;;4.40;99.90;;;;;;5038396;28;20095;-72
2023/12/13 03:00:08;;;;;;;28.35;15.98;;;4.40;99.90;;;;;;5042273;28;20021;-72
2023/12/13 03:02:34;;;;;;;37.72;20.02;;;4.40;99.90;;;;;;5042488;28;20024;-74
2023/12/13 03:05:01;;;;;;;34.53;19.05;;;4.40;99.90;;;;;;5042246;28;20079;-71
2023/12/13 03:07:27;;;;;;;34.75;19.17;;;4.40;99.90;;;;;;5044371;28;20394;-72
2023/12/13 03:09:53;;;;;;;33.13;18.63;;;4.40;99.90;;;;;;5042449;28;20052;-72
2023/12/13 03:12:18;;;;;;;39.78;19.90;;;4.40;99.90;;;;;;5042212;28;20079;-72
2023/12/13 03:14:44;;;;;;;48.88;20.90;;;4.40;99.90;;;;;;5042163;28;20073;-72
2023/12/13 03:17:09;;;;;;;38.67;20.50;;;4.40;99.90;;;;;;5041987;28;20029;-72
2023/12/13 03:19:35;;;;;;;34.58;19.08;;;4.40;99.90;;;;;;5042181;28;20473;-72
2023/12/13 03:22:00;;;;;;;33.13;18.38;;;4.40;99.90;;;;;;5043660;28;20035;-72
2023/12/13 03:24:26;;;;;;;32.47;17.88;;;4.40;99.90;;;;;;5042117;28;20035;-72
2023/12/13 03:26:51;;;;;;;29.75;17.27;;;4.40;99.90;;;;;;5041970;28;20068;-72
2023/12/13 03:29:17;;;;;;;33.15;17.75;;;4.40;99.90;;;;;;5042046;28;20017;-72
2023/12/13 03:31:43;;;;;;;32.92;18.67;;;4.40;99.90;;;;;;5041944;28;20024;-72
2023/12/13 03:34:08;;;;;;;40.45;20.10;;;4.50;99.90;;;;;;5041628;28;20086;-72
2023/12/13 03:36:34;;;;;;;40.58;19.55;;;4.50;99.90;;;;;;5033717;28;20036;-69
2023/12/13 03:38:59;;;;;;;35.08;17.33;;;4.50;99.90;;;;;;5043587;28;20398;-71
2023/12/13 03:41:25;;;;;;;33.58;18.42;;;4.50;99.90;;;;;;5041688;28;20031;-72
2023/12/13 03:43:50;;;;;;;42.08;20.50;;;4.50;99.90;;;;;;5041659;28;20025;-72
2023/12/13 03:46:16;;;;;;;36.85;19.58;;;4.50;99.90;;;;;;5041585;28;20482;-71
2023/12/13 03:48:42;;;;;;;29.67;16.70;;;4.50;99.90;;;;;;5040167;28;20028;-71
2023/12/13 03:51:07;;;;;;;28.77;16.25;;;4.50;99.90;;;;;;5042401;28;20021;-72
2023/12/13 03:53:33;;;;;;;31.45;16.77;;;4.50;99.90;;;;;;5041535;28;20144;-72
2023/12/13 03:55:59;;;;;;;27.95;15.75;;;4.50;99.90;;;;;;5040654;28;20165;-71
2023/12/13 03:58:25;;;;;;;27.13;16.55;;;4.50;99.90;;;;;;5040948;28;20020;-72
2023/12/13 04:00:51;;;;;;;32.15;17.38;;;4.60;99.90;;;;;;5031548;28;20021;-72
2023/12/13 04:03:16;;;;;;;31.98;17.88;;;4.60;99.90;;;;;;5032700;28;20032;-72
2023/12/13 04:05:42;;;;;;;36.70;17.88;;;4.60;99.90;;;;;;5038972;28;20033;-73
2023/12/13 04:08:08;;;;;;;37.03;18.50;;;4.60;99.90;;;;;;5032772;28;20024;-72
2023/12/13 04:10:34;;;;;;;29.50;16.33;;;4.60;99.90;;;;;;5034395;28;20590;-72
2023/12/13 04:12:59;;;;;;;45.55;21.88;;;4.60;99.90;;;;;;5035602;28;20363;-72
2023/12/13 04:15:25;;;;;;;36.90;17.35;;;4.60;99.90;;;;;;5040994;28;20033;-72
2023/12/13 04:17:50;;;;;;;32.90;17.92;;;4.60;99.90;;;;;;5040728;28;20041;-71
2023/12/13 04:20:16;;;;;;;32.35;17.33;;;4.60;99.90;;;;;;5042744;28;20056;-72
2023/12/13 04:22:42;;;;;;;28.20;14.82;;;4.60;99.90;;;;;;5041008;28;20029;-72
2023/12/13 04:25:07;;;;;;;34.17;18.85;;;4.60;99.90;;;;;;5041051;28;20078;-72
2023/12/13 04:27:33;;;;;;;29.08;17.08;;;4.60;99.90;;;;;;5040848;28;20017;-72
2023/12/13 04:29:59;;;;;;;38.10;19.60;;;4.60;99.90;;;;;;5040656;28;20027;-72
2023/12/13 04:32:24;;;;;;;35.58;18.40;;;4.60;99.90;;;;;;5040644;28;20037;-72
2023/12/13 04:34:49;;;;;;;37.75;20.73;;;4.50;99.90;;;;;;5038643;28;20040;-71
2023/12/13 04:37:15;;;;;;;41.65;21.58;;;4.60;99.90;;;;;;5037496;28;20048;-72
2023/12/13 04:39:40;;;;;;;35.58;18.45;;;4.60;99.90;;;;;;5040648;28;20097;-72
2023/12/13 04:42:06;;;;;;;43.58;22.17;;;4.60;99.90;;;;;;5040785;28;20033;-72
2023/12/13 04:44:31;;;;;;;51.13;23.95;;;4.60;99.90;;;;;;5040808;28;20458;-71
2023/12/13 04:46:57;;;;;;;40.63;21.20;;;4.60;99.90;;;;;;5040412;28;20036;-71
2023/12/13 04:49:23;;;;;;;43.50;22.40;;;4.60;99.90;;;;;;5041044;28;20025;-71
2023/12/13 04:51:48;;;;;;;32.40;19.92;;;4.60;99.90;;;;;;5040772;28;20025;-72
2023/12/13 04:54:14;;;;;;;45.35;23.33;;;4.60;99.90;;;;;;5038342;28;20025;-72
2023/12/13 04:56:40;;;;;;;46.85;23.85;;;4.60;99.90;;;;;;5034948;28;20060;-68
2023/12/13 04:59:06;;;;;;;41.95;23.88;;;4.60;99.90;;;;;;5040393;28;20127;-69
2023/12/13 05:01:31;;;;;;;48.80;24.92;;;4.60;99.90;;;;;;5040164;28;20043;-69
2023/12/13 05:03:57;;;;;;;40.60;21.33;;;4.60;99.90;;;;;;5038944;28;20234;-69
2023/12/13 05:06:22;;;;;;;37.78;20.92;;;4.60;99.90;;;;;;5040122;28;20047;-70
2023/12/13 05:08:48;;;;;;;39.40;19.73;;;4.60;99.90;;;;;;5042217;28;20025;-70
2023/12/13 05:11:13;;;;;;;48.95;24.23;;;4.70;99.90;;;;;;5039970;28;20496;-69
2023/12/13 05:13:39;;;;;;;40.80;23.33;;;4.70;99.90;;;;;;5039908;28;20037;-69
2023/12/13 05:16:06;;;;;;;43.25;22.27;;;4.70;99.90;;;;;;5040377;28;20402;-69
2023/12/13 05:18:31;;;;;;;46.35;22.50;;;4.70;99.90;;;;;;5040113;28;20032;-69
2023/12/13 05:20:57;;;;;;;35.40;21.05;;;4.70;99.90;;;;;;5039870;28;20028;-69
2023/12/13 05:23:22;;;;;;;38.42;21.23;;;4.70;99.90;;;;;;5042069;28;20517;-69
2023/12/13 05:25:48;;;;;;;46.20;23.83;;;4.80;99.90;;;;;;5038477;28;20022;-69
2023/12/13 05:28:13;;;;;;;43.03;23.38;;;4.80;99.90;;;;;;5040119;28;20025;-69
2023/12/13 05:30:39;;;;;;;46.55;25.08;;;4.80;99.90;;;;;;5035602;28;20104;-69
2023/12/13 05:33:07;;;;;;;45.92;23.33;;;4.80;99.90;;;;;;5033330;28;20033;-69
2023/12/13 05:35:32;;;;;;;48.30;24.48;;;4.80;99.90;;;;;;5032335;28;20032;-66
2023/12/13 05:37:58;;;;;;;47.38;24.27;;;4.80;99.90;;;;;;5026708;28;20136;-69
2023/12/13 05:40:23;;;;;;;52.53;26.67;;;4.80;99.90;;;;;;5039086;28;20509;-69
2023/12/13 05:42:48;;;;;;;49.83;27.08;;;4.80;99.90;;;;;;5031540;28;20060;-69
2023/12/13 05:45:14;;;;;;;46.58;23.13;;;4.80;99.90;;;;;;5033954;28;20190;-69
2023/12/13 05:47:39;;;;;;;47.42;23.83;;;4.80;99.90;;;;;;5032850;28;20050;-69
2023/12/13 05:50:06;;;;;;;47.10;24.10;;;4.80;99.90;;;;;;5041429;28;20120;-69
2023/12/13 05:52:32;;;;;;;53.03;27.02;;;4.80;99.90;;;;;;5039970;28;20024;-69
2023/12/13 05:54:58;;;;;;;49.15;25.25;;;4.80;99.90;;;;;;5039531;28;20021;-68
2023/12/13 05:57:24;;;;;;;48.63;25.23;;;4.80;99.90;;;;;;5039542;28;20041;-69
2023/12/13 05:59:49;;;;;;;42.63;21.38;;;4.80;99.90;;;;;;5039788;28;20048;-69
2023/12/13 06:02:15;;;;;;;53.15;24.58;;;4.80;99.90;;;;;;5039925;28;20410;-69
2023/12/13 06:04:42;;;;;;;46.35;24.50;;;4.90;99.90;;;;;;5039248;28;20035;-69
2023/12/13 06:07:11;;;;;;;54.72;27.90;;;4.80;99.90;;;;;;5040972;28;20524;-70
2023/12/13 06:09:36;;;;;;;52.38;26.17;;;4.80;99.90;;;;;;5029711;28;20559;-69
2023/12/13 06:12:05;;;;;;;56.25;26.13;;;4.90;99.90;;;;;;5034037;28;20104;-69
2023/12/13 06:14:31;;;;;;;63.40;31.15;;;4.90;99.90;;;;;;5041542;28;20056;-69
2023/12/13 06:16:56;;;;;;;53.28;26.13;;;4.80;99.90;;;;;;5043179;28;20041;-68
2023/12/13 06:19:21;;;;;;;53.28;28.35;;;4.80;99.90;;;;;;5035228;28;20425;-69
2023/12/13 06:21:47;;;;;;;46.55;25.05;;;4.80;99.90;;;;;;5040875;28;20043;-69
2023/12/13 06:24:13;;;;;;;56.70;27.48;;;4.80;99.90;;;;;;5045807;28;20040;-68
2023/12/13 06:26:38;;;;;;;66.20;31.58;;;4.80;99.90;;;;;;5039253;28;20036;-68
2023/12/13 06:29:04;;;;;;;49.35;25.33;;;4.80;99.90;;;;;;5037605;28;20025;-70
2023/12/13 06:31:29;;;;;;;51.45;26.27;;;4.80;99.90;;;;;;5034608;28;20057;-70
2023/12/13 06:33:55;;;;;;;54.70;27.67;;;4.80;99.90;;;;;;5036886;28;20410;-71
2023/12/13 06:36:20;;;;;;;55.17;26.45;;;4.80;99.90;;;;;;5034920;28;20025;-68
2023/12/13 06:38:46;;;;;;;60.42;29.98;;;4.80;99.90;;;;;;5037561;28;20045;-69
2023/12/13 06:41:12;;;;;;;62.03;29.92;;;4.70;99.90;;;;;;5037479;28;20021;-68
2023/12/13 06:43:37;;;;;;;62.97;29.73;;;4.80;99.90;;;;;;5038373;28;20033;-70
2023/12/13 06:46:03;;;;;;;59.00;30.50;;;4.80;99.90;;;;;;5036164;28;20128;-68
2023/12/13 06:48:29;;;;;;;62.22;32.05;;;4.70;99.90;;;;;;5038307;28;20029;-69
2023/12/13 06:50:55;;;;;;;63.78;30.45;;;4.70;99.90;;;;;;5040490;28;20108;-69
2023/12/13 06:53:21;;;;;;;53.53;29.13;;;4.70;99.90;;;;;;5041001;28;20650;-69
2023/12/13 06:55:46;;;;;;;65.20;32.70;;;4.70;99.90;;;;;;5037538;28;20037;-69
2023/12/13 06:58:12;;;;;;;58.53;30.70;;;4.70;99.90;;;;;;5035243;28;20052;-69
2023/12/13 07:00:38;;;;;;;70.00;32.75;;;4.70;99.90;;;;;;5039729;28;20521;-69
2023/12/13 07:03:03;;;;;;;62.50;30.30;;;4.70;99.90;;;;;;5038439;28;20024;-71
2023/12/13 07:05:29;;;;;;;59.25;31.05;;;4.70;99.90;;;;;;5039227;28;20052;-69
2023/12/13 07:07:55;;;;;;;70.28;33.53;;;4.70;99.90;;;;;;5041990;28;20079;-67
2023/12/13 07:10:21;;;;;;;56.72;28.92;;;4.70;99.90;;;;;;5039204;28;20017;-69
2023/12/13 07:12:47;;;;;;;74.18;34.42;;;4.70;99.90;;;;;;5039016;28;20040;-68
2023/12/13 07:15:13;;;;;;;74.18;35.20;;;4.70;99.90;;;;;;5038205;28;20487;-69
2023/12/13 07:17:39;;;;;;;70.43;35.42;;;4.70;99.90;;;;;;5037009;28;20025;-69
2023/12/13 07:20:06;;;;;;;66.25;31.88;;;4.70;99.90;;;;;;5039152;28;20087;-71
2023/12/13 07:22:32;;;;;;;64.95;31.30;;;4.70;99.90;;;;;;5040036;28;20661;-70
2023/12/13 07:24:57;;;;;;;65.03;31.63;;;4.70;99.90;;;;;;5039816;28;20028;-68
2023/12/13 07:27:23;;;;;;;61.90;31.70;;;4.70;99.90;;;;;;5039902;28;20024;-70
2023/12/13 07:29:48;;;;;;;55.95;28.50;;;4.70;99.90;;;;;;5040778;28;20499;-69
2023/12/13 07:32:13;;;;;;;67.60;31.50;;;4.70;99.90;;;;;;5039481;28;20036;-69
2023/12/13 07:34:43;;;;;;;66.20;31.88;;;4.70;99.90;;;;;;5040588;28;20057;-69
2023/12/13 07:37:08;;;;;;;72.15;35.00;;;4.70;99.90;;;;;;5038464;28;20017;-69
2023/12/13 07:39:36;;;;;;;78.07;39.33;;;4.80;99.90;;;;;;5040822;28;20031;-69
2023/12/13 07:42:03;;;;;;;66.18;33.83;;;4.80;99.90;;;;;;5037517;28;20526;-68
2023/12/13 07:44:31;;;;;;;89.47;40.28;;;4.80;99.90;;;;;;5039494;28;20104;-69
2023/12/13 07:46:56;;;;;;;72.57;34.42;;;4.80;99.90;;;;;;5039240;28;20032;-70
2023/12/13 07:49:22;;;;;;;59.20;31.20;;;4.70;99.90;;;;;;5040349;28;20029;-69
2023/12/13 07:51:47;;;;;;;79.28;36.42;;;4.70;99.90;;;;;;5040565;28;20052;-66
2023/12/13 07:54:16;;;;;;;77.68;36.42;;;4.70;99.90;;;;;;5036474;28;20100;-67
2023/12/13 07:56:41;;;;;;;78.95;37.08;;;4.70;99.90;;;;;;5035176;28;20048;-67
2023/12/13 07:59:07;;;;;;;83.47;37.38;;;4.70;99.90;;;;;;5040363;28;20118;-66
2023/12/13 08:01:32;;;;;;;91.18;39.20;;;4.70;99.90;;;;;;5042035;28;20029;-67
2023/12/13 08:03:58;;;;;;;78.38;37.00;;;4.70;99.90;;;;;;5038536;28;20037;-66
2023/12/13 08:06:24;;;;;;;71.07;35.53;;;4.70;99.90;;;;;;5040014;28;20032;-67
2023/12/13 08:08:51;;;;;;;79.88;36.08;;;4.70;99.90;;;;;;5040057;28;20021;-66
2023/12/13 08:11:16;;;;;;;74.38;37.08;;;4.70;99.90;;;;;;5039604;28;20020;-65
2023/12/13 08:13:42;;;;;;;82.15;37.83;;;4.70;99.90;;;;;;5036586;28;20025;-65
2023/12/13 08:16:09;;;;;;;93.85;42.28;;;4.70;99.90;;;;;;5041887;28;20025;-64
2023/12/13 08:18:35;;;;;;;83.20;38.35;;;4.70;99.90;;;;;;5040848;28;20082;-65
2023/12/13 08:21:01;;;;;;;72.35;36.47;;;4.70;99.90;;;;;;5038662;28;20033;-64
2023/12/13 08:23:26;;;;;;;85.72;39.38;;;4.70;99.90;;;;;;5039443;28;20406;-64
2023/12/13 08:25:52;;;;;;;79.25;36.25;;;4.70;99.90;;;;;;5039547;28;20060;-63
2023/12/13 08:28:17;;;;;;;68.47;34.05;;;4.70;99.90;;;;;;5038196;28;20436;-64
2023/12/13 08:30:43;;;;;;;69.15;32.45;;;4.80;99.90;;;;;;5040367;28;20035;-64
2023/12/13 08:33:08;;;;;;;74.13;35.25;;;4.80;99.90;;;;;;5039500;28;20056;-64
2023/12/13 08:35:34;;;;;;;67.13;30.20;;;4.70;99.90;;;;;;5038984;28;20040;-63
2023/12/13 08:37:59;;;;;;;78.57;35.88;;;4.80;99.90;;;;;;5033203;28;20021;-65
2023/12/13 08:40:25;;;;;;;67.68;32.97;;;4.80;99.90;;;;;;5036971;28;20494;-64
2023/12/13 08:42:50;;;;;;;59.67;29.88;;;4.80;99.90;;;;;;5038050;28;20025;-64
2023/12/13 08:45:16;;;;;;;82.57;36.47;;;4.80;99.90;;;;;;5039090;28;20060;-63
2023/12/13 08:47:41;;;;;;;62.30;30.38;;;4.80;99.90;;;;;;5039378;28;20565;-64
2023/12/13 08:50:07;;;;;;;65.15;31.65;;;4.80;99.90;;;;;;5038030;28;20033;-64
2023/12/13 08:52:33;;;;;;;50.17;25.88;;;4.80;99.90;;;;;;5034988;28;20025;-63
2023/12/13 08:54:58;;;;;;;64.57;32.00;;;4.80;99.90;;;;;;5039099;28;20480;-65
2023/12/13 08:57:24;;;;;;;56.88;28.17;;;4.90;99.90;;;;;;5040852;28;20033;-64
2023/12/13 08:59:49;;;;;;;52.55;25.80;;;4.90;99.90;;;;;;5040203;28;20398;-64
2023/12/13 09:02:15;;;;;;;56.85;28.20;;;4.80;99.90;;;;;;5035686;28;20057;-64
2023/12/13 09:04:41;;;;;;;51.30;26.33;;;4.90;99.90;;;;;;5035395;28;20104;-64
2023/12/13 09:07:06;;;;;;;49.03;25.85;;;4.90;99.90;;;;;;5035368;28;20029;-64
2023/12/13 09:09:32;;;;;;;55.75;27.02;;;4.90;99.90;;;;;;5037787;28;20040;-64
2023/12/13 09:11:58;;;;;;;39.40;21.40;;;4.90;99.90;;;;;;5038138;28;20485;-63
2023/12/13 09:14:25;;;;;;;58.90;29.30;;;4.90;99.90;;;;;;5041879;28;20052;-64
2023/12/13 09:16:50;;;;;;;47.40;25.58;;;5.00;99.90;;;;;;5038591;28;20098;-65
2023/12/13 09:19:16;;;;;;;51.35;27.30;;;5.00;99.90;;;;;;5038292;28;20439;-65
2023/12/13 09:21:42;;;;;;;47.95;23.83;;;5.00;99.90;;;;;;5037601;28;20051;-66
2023/12/13 09:24:07;;;;;;;57.30;27.00;;;5.00;99.90;;;;;;5037358;28;20021;-66
2023/12/13 09:26:35;;;;;;;47.05;23.48;;;5.00;99.90;;;;;;5038917;28;20032;-65
2023/12/13 09:29:01;;;;;;;47.40;24.45;;;5.00;99.90;;;;;;5031861;28;20505;-64
2023/12/13 09:31:27;;;;;;;53.17;26.25;;;5.00;99.90;;;;;;5040535;28;20052;-66
2023/12/13 09:33:52;;;;;;;45.90;22.10;;;5.00;99.90;;;;;;5038625;28;20112;-65
2023/12/13 09:36:18;;;;;;;44.58;22.52;;;5.00;99.90;;;;;;5033142;28;20795;-69
2023/12/13 09:38:43;;;;;;;49.05;22.55;;;5.10;99.90;;;;;;5038645;28;20040;-72
2023/12/13 09:41:09;;;;;;;48.20;25.50;;;5.10;99.90;;;;;;5034379;28;20078;-72
2023/12/13 09:43:40;;;;;;;46.03;23.08;;;5.10;99.90;;;;;;5037890;28;20044;-69
2023/12/13 09:46:07;;;;;;;41.80;21.77;;;5.10;99.90;;;;;;5034517;28;20017;-60
2023/12/13 09:48:34;;;;;;;53.40;27.25;;;5.10;99.90;;;;;;5039502;28;20021;-62
2023/12/13 09:51:04;;;;;;;49.80;24.25;;;5.10;99.90;;;;;;5042378;28;20429;-61
2023/12/13 09:53:30;;;;;;;43.17;22.55;;;5.10;99.90;;;;;;5036126;28;20509;-62
2023/12/13 09:55:56;;;;;;;42.20;21.48;;;5.10;99.90;;;;;;5042213;28;20059;-61
2023/12/13 09:58:22;;;;;;;43.78;21.85;;;5.20;99.90;;;;;;5035573;28;20174;-62
2023/12/13 10:00:47;;;;;;;43.33;20.65;;;5.20;99.90;;;;;;5042542;28;20029;-61
2023/12/13 10:03:13;;;;;;;40.15;20.50;;;5.20;99.90;;;;;;5042404;28;20095;-60
2023/12/13 10:05:41;;;;;;;36.22;19.05;;;5.20;99.90;;;;;;5044013;28;20064;-62
2023/12/13 10:08:10;;;;;;;40.30;20.70;;;5.20;99.90;;;;;;5040154;28;20029;-61
2023/12/13 10:10:35;;;;;;;46.15;22.50;;;5.20;99.90;;;;;;5038750;28;20898;-61
2023/12/13 10:13:01;;;;;;;40.17;21.20;;;5.20;99.90;;;;;;5040634;28;20036;-61
2023/12/13 10:15:33;;;;;;;40.08;21.15;;;5.30;99.90;;;;;;5042401;28;20040;-61
2023/12/13 10:18:01;;;;;;;36.70;18.55;;;5.30;99.90;;;;;;5040107;28;20025;-61
2023/12/13 10:20:28;;;;;;;40.65;21.63;;;5.40;99.90;;;;;;5042034;28;20060;-61
2023/12/13 10:22:54;;;;;;;36.75;18.67;;;5.40;99.90;;;;;;5042265;28;20082;-61
2023/12/13 10:25:23;;;;;;;46.28;24.10;;;5.50;99.90;;;;;;5038696;28;20430;-60
2023/12/13 10:27:51;;;;;;;42.13;21.67;;;5.50;99.90;;;;;;5039138;28;20036;-60
2023/12/13 10:30:18;;;;;;;40.55;21.10;;;5.50;99.90;;;;;;5038148;28;20703;-62
2023/12/13 10:32:44;;;;;;;34.92;17.58;;;5.40;99.90;;;;;;5041817;28;20025;-61
2023/12/13 10:35:10;;;;;;;43.67;21.20;;;5.40;99.90;;;;;;5041819;28;20037;-61
2023/12/13 10:37:36;;;;;;;39.63;19.73;;;5.40;99.90;;;;;;5034685;28;20604;-61
2023/12/13 10:40:04;;;;;;;41.42;20.85;;;5.30;99.90;;;;;;5041732;28;20028;-62
2023/12/13 10:42:30;;;;;;;45.08;20.70;;;5.40;99.90;;;;;;5041661;28;20025;-61
2023/12/13 10:44:55;;;;;;;41.85;21.23;;;5.40;99.90;;;;;;5040984;28;20226;-60
2023/12/13 10:47:26;;;;;;;43.55;21.98;;;5.40;99.90;;;;;;5035001;28;20029;-61
2023/12/13 10:49:54;;;;;;;45.47;23.23;;;5.40;99.90;;;;;;5043491;28;20039;-61
2023/12/13 10:52:21;;;;;;;38.40;19.02;;;5.40;99.90;;;;;;5040389;28;20501;-61
2023/12/13 10:54:51;;;;;;;42.78;19.40;;;5.40;99.90;;;;;;5041319;28;20033;-60
2023/12/13 10:57:17;;;;;;;44.10;21.85;;;5.40;99.90;;;;;;5039526;28;20041;-61
2023/12/13 10:59:45;;;;;;;40.97;20.00;;;5.40;99.90;;;;;;5039745;28;20061;-66
2023/12/13 11:02:14;;;;;;;41.55;20.83;;;5.40;99.90;;;;;;5035293;28;20092;-68
2023/12/13 11:04:43;;;;;;;52.08;24.27;;;5.40;99.90;;;;;;5036471;28;20372;-61
2023/12/13 11:07:08;;;;;;;50.35;21.05;;;5.40;99.90;;;;;;5037616;28;20507;-61
2023/12/13 11:09:34;;;;;;;44.33;22.70;;;5.40;99.90;;;;;;5041170;28;20128;-61
2023/12/13 11:12:09;;;;;;;42.45;20.15;;;5.40;99.90;;;;;;5042763;28;20108;-61
2023/12/13 11:14:35;;;;;;;41.65;19.77;;;5.40;99.90;;;;;;5042219;28;20032;-61
2023/12/13 11:17:00;;;;;;;40.30;20.02;;;5.50;99.90;;;;;;5035354;28;20033;-61
2023/12/13 11:19:27;;;;;;;50.95;23.85;;;5.50;99.90;;;;;;5042877;28;20056;-61
2023/12/13 11:21:55;;;;;;;47.03;23.08;;;5.50;99.90;;;;;;5040792;28;20071;-61
2023/12/13 11:24:26;;;;;;;44.15;21.55;;;5.50;99.90;;;;;;5037685;28;20106;-61
2023/12/13 11:26:58;;;;;;;45.35;21.27;;;5.50;99.90;;;;;;5037560;28;20025;-61
2023/12/13 11:29:33;;;;;;;51.50;23.50;;;5.50;99.90;;;;;;5040997;28;20025;-61
2023/12/13 11:32:01;;;;;;;61.72;25.15;;;5.50;99.90;;;;;;5040924;28;20021;-61
2023/12/13 11:34:48;;;;;;;56.97;27.17;;;5.50;99.90;;;;;;5039071;28;20435;-60
2023/12/13 11:37:14;;;;;;;52.00;24.38;;;5.50;99.90;;;;;;5034085;28;20441;-61
2023/12/13 11:39:41;;;;;;;64.90;27.13;;;5.50;99.90;;;;;;5040592;28;20098;-61
2023/12/13 11:42:08;;;;;;;59.03;25.20;;;5.50;99.90;;;;;;5039081;28;20017;-61
2023/12/13 11:44:35;;;;;;;57.92;26.58;;;5.50;99.90;;;;;;5034157;28;20025;-61
2023/12/13 11:47:06;;;;;;;53.25;24.45;;;5.50;99.90;;;;;;5034486;28;20029;-60
2023/12/13 11:49:32;;;;;;;58.17;25.40;;;5.40;99.90;;;;;;5038422;28;20021;-60
2023/12/13 11:51:59;;;;;;;58.10;26.48;;;5.40;99.90;;;;;;5039263;28;20509;-61
2023/12/13 11:54:24;;;;;;;70.32;30.40;;;5.40;99.90;;;;;;5039195;28;20635;-61
2023/12/13 11:56:50;;;;;;;60.40;26.38;;;5.40;99.90;;;;;;5035504;28;20108;-61
2023/12/13 11:59:16;;;;;;;53.78;24.48;;;5.40;99.90;;;;;;5038100;28;20116;-61
2023/12/13 12:01:42;;;;;;;66.18;28.02;;;5.40;99.90;;;;;;5030391;28;20100;-61
2023/12/13 12:04:08;;;;;;;51.80;24.17;;;5.40;99.90;;;;;;5036788;28;20101;-61
2023/12/13 12:06:34;;;;;;;65.25;25.00;;;5.40;99.90;;;;;;5036837;28;20518;-60
2023/12/13 12:09:00;;;;;;;49.75;21.77;;;5.40;99.90;;;;;;5036476;28;20055;-60
2023/12/13 12:11:26;;;;;;;63.53;25.08;;;5.40;99.90;;;;;;5035493;28;20364;-60
2023/12/13 12:13:54;;;;;;;50.00;23.25;;;5.40;99.90;;;;;;5041802;28;20074;-60
2023/12/13 12:16:19;;;;;;;50.58;22.48;;;5.40;99.90;;;;;;5038960;28;20037;-61
2023/12/13 12:18:46;;;;;;;57.97;24.63;;;5.40;99.90;;;;;;5039955;28;20029;-60
2023/12/13 12:21:11;;;;;;;52.58;23.38;;;5.40;99.90;;;;;;5036406;28;20107;-61
2023/12/13 12:23:43;;;;;;;59.97;25.95;;;5.40;99.90;;;;;;5040056;28;20455;-61
2023/12/13 12:26:10;;;;;;;47.33;20.92;;;5.40;99.90;;;;;;5038825;28;20128;-61
2023/12/13 12:28:38;;;;;;;51.58;21.77;;;5.50;99.90;;;;;;5035109;28;20528;-60
2023/12/13 12:31:04;;;;;;;58.30;25.73;;;5.50;99.90;;;;;;5033107;28;20073;-60